Terminal Aerodrome Forecast
Issued by NWS Wichita, KS

Home | Current Version | Previous Version | Text Only | Print | Product List | Glossary Off
Versions: 1 2 3 4 5 6 7 8 9 10 11 12 13 14 15 16 17 18 19 20 21 22 23

049
FTUS43 KICT 132326
TAFICT
TAF
KICT 132326Z 1400/1424 04007KT P6SM OVC018
      TEMPO 1400/1402 5SM -FZRA
     FM140700 01005KT P6SM OVC020
     FM142000 04005KT 5SM -FZRA OVC010=

USA.gov is the U.S. government's official web portal to all federal, state and local government web resources and services.